Time;durP1;ratioP1;P1;durP2;ratioP2;P2;SDS_P1;SDS_P2;PMS_P1;PMS_P2;Temp;Humidity;BMP_temperature;BMP_pressure;BME280_temperature;BME280_humidity;BME280_pressure;Samples;Min_cycle;Max_cycle;Signal;HPM_P1;HPM_P2
2022/09/02 00:02:04;;;;;;;6.50;3.50;;;;;;;17.43;56.75;101295.41;108833;1233;64280;-70
2022/09/02 00:04:32;;;;;;;10.00;3.30;;;;;;;17.41;57.59;101298.05;108847;1233;60894;-71
2022/09/02 00:07:00;;;;;;;7.30;3.30;;;;;;;17.40;57.84;101302.85;108743;1233;70995;-68
2022/09/02 00:09:27;;;;;;;6.10;2.80;;;;;;;17.38;58.47;101303.39;108832;1233;63604;-70
2022/09/02 00:11:56;;;;;;;6.10;2.90;;;;;;;17.36;58.09;101305.54;108898;1233;59540;-72
2022/09/02 00:14:32;;;;;;;8.70;3.20;;;;;;;17.34;58.29;101306.38;108831;1234;60473;-72
2022/09/02 00:17:00;;;;;;;6.80;2.70;;;;;;;17.34;58.60;101303.45;108842;1235;63728;-71
2022/09/02 00:19:30;;;;;;;11.50;3.00;;;;;;;17.34;59.36;101302.16;108664;1235;61450;-70
2022/09/02 00:22:00;;;;;;;5.50;3.00;;;;;;;17.35;58.97;101298.78;108791;1233;70534;-72
2022/09/02 00:24:28;;;;;;;9.90;3.40;;;;;;;17.34;59.05;101296.58;108948;1233;74503;-69
2022/09/02 00:26:55;;;;;;;7.70;3.10;;;;;;;17.30;62.09;101304.12;108780;1233;62861;-71
2022/09/02 00:29:27;;;;;;;7.20;3.30;;;;;;;17.31;61.23;101310.95;108834;1233;60785;-71
2022/09/02 00:31:55;;;;;;;7.20;2.80;;;;;;;17.31;60.19;101313.05;108671;1233;73712;-71
2022/09/02 00:34:24;;;;;;;9.60;3.00;;;;;;;17.26;60.70;101321.20;108550;1233;61167;-70
2022/09/02 00:36:51;;;;;;;7.60;3.10;;;;;;;17.27;60.40;101322.19;108753;1234;59116;-69
2022/09/02 00:39:19;;;;;;;7.90;3.60;;;;;;;17.25;59.90;101324.50;108746;1233;63243;-69
2022/09/02 00:41:46;;;;;;;8.20;3.60;;;;;;;17.23;60.16;101326.79;108778;1233;61252;-70
2022/09/02 00:44:18;;;;;;;10.00;3.70;;;;;;;17.23;60.44;101330.77;108757;1236;59570;-69
2022/09/02 00:46:46;;;;;;;5.50;3.50;;;;;;;17.23;60.62;101332.75;108598;1235;74530;-70
2022/09/02 00:49:34;;;;;;;8.50;3.60;;;;;;;17.16;60.75;101330.91;108563;1237;60783;-70
2022/09/02 00:52:19;;;;;;;6.40;3.60;;;;;;;17.12;61.07;101333.05;108648;1235;70088;-70
2022/09/02 00:54:55;;;;;;;8.60;3.80;;;;;;;17.10;61.26;101336.61;108532;1235;75133;-69
2022/09/02 00:57:29;;;;;;;8.80;4.10;;;;;;;17.08;61.11;101337.64;108889;1235;61333;-71
2022/09/02 01:00:18;;;;;;;7.40;4.30;;;;;;;17.07;61.59;101339.48;108947;1235;59629;-71
2022/09/02 01:02:52;;;;;;;10.70;4.70;;;;;;;17.08;62.29;101348.39;108479;1234;74901;-70
2022/09/02 01:05:22;;;;;;;9.80;4.40;;;;;;;17.07;62.49;101345.95;110827;1233;61967;-70
2022/09/02 01:07:51;;;;;;;10.60;4.50;;;;;;;17.05;63.26;101344.53;108824;1236;60357;-71
2022/09/02 01:10:34;;;;;;;9.80;4.70;;;;;;;17.02;64.36;101344.40;108480;1233;74027;-69
2022/09/02 01:13:12;;;;;;;10.30;4.90;;;;;;;16.97;64.02;101342.70;109515;1236;58918;-72
2022/09/02 01:15:46;;;;;;;9.30;4.70;;;;;;;16.90;63.90;101344.20;108626;1235;59581;-70
2022/09/02 01:18:21;;;;;;;7.80;4.90;;;;;;;16.83;64.87;101344.98;108561;1233;74525;-70
2022/09/02 01:20:48;;;;;;;10.90;5.20;;;;;;;16.72;65.17;101346.45;108559;1233;71927;-69
2022/09/02 01:23:17;;;;;;;9.90;5.40;;;;;;;16.63;66.14;101347.02;108701;1233;68392;-68
2022/09/02 01:25:46;;;;;;;10.90;5.30;;;;;;;16.55;66.26;101344.24;107075;1235;71404;-70
2022/09/02 01:28:17;;;;;;;13.70;5.40;;;;;;;16.45;68.10;101337.25;108689;1233;60404;-68
2022/09/02 01:30:52;;;;;;;13.20;5.10;;;;;;;16.38;70.27;101341.39;108359;1234;60552;-68
2022/09/02 01:33:22;;;;;;;11.10;5.00;;;;;;;16.31;71.15;101344.38;108573;1235;74258;-69
2022/09/02 01:35:53;;;;;;;22.60;5.80;;;;;;;16.26;70.42;101339.58;108408;1235;72865;-70
2022/09/02 01:38:22;;;;;;;10.60;5.30;;;;;;;16.19;71.45;101343.02;108506;1234;71844;-71
2022/09/02 01:40:51;;;;;;;11.20;5.70;;;;;;;16.10;72.02;101347.27;108510;1236;72374;-70
2022/09/02 01:43:24;;;;;;;10.70;5.70;;;;;;;16.02;74.08;101350.41;108778;1235;61333;-72
2022/09/02 01:45:54;;;;;;;9.20;5.00;;;;;;;15.96;73.25;101355.11;108545;1235;59664;-73
2022/09/02 01:48:23;;;;;;;10.90;5.60;;;;;;;15.94;73.53;101358.35;108528;1236;73380;-71
2022/09/02 01:50:57;;;;;;;11.20;5.70;;;;;;;15.95;73.72;101365.99;108766;1233;70377;-70
2022/09/02 01:53:26;;;;;;;10.20;5.80;;;;;;;15.95;74.04;101363.48;108689;1233;68059;-71
2022/09/02 01:55:55;;;;;;;11.40;6.00;;;;;;;15.95;73.94;101363.87;108368;1236;71977;-70
2022/09/02 01:58:22;;;;;;;13.40;6.30;;;;;;;15.97;75.05;101367.60;108696;1233;61216;-70
2022/09/02 02:00:50;;;;;;;11.20;6.00;;;;;;;15.95;75.96;101367.18;108463;1234;61353;-70
2022/09/02 02:03:19;;;;;;;12.60;6.50;;;;;;;15.93;75.89;101368.23;108685;1233;75210;-70
2022/09/02 02:05:47;;;;;;;12.90;6.50;;;;;;;15.92;76.13;101366.73;108829;1233;73000;-70
2022/09/02 02:08:15;;;;;;;10.70;5.60;;;;;;;15.92;76.11;101370.04;108871;1233;69163;-69
2022/09/02 02:10:43;;;;;;;11.80;6.40;;;;;;;15.94;76.90;101371.48;108810;1233;72297;-68
2022/09/02 02:13:13;;;;;;;12.10;6.20;;;;;;;15.93;76.99;101368.95;108681;1236;61221;-73
2022/09/02 02:15:43;;;;;;;11.00;5.90;;;;;;;15.92;78.19;101371.27;108591;1235;60391;-71
2022/09/02 02:18:11;;;;;;;11.10;5.30;;;;;;;15.92;77.15;101375.18;108541;1234;74330;-72
2022/09/02 02:20:39;;;;;;;11.10;5.30;;;;;;;15.90;77.66;101369.21;108761;1234;73181;-68
2022/09/02 02:23:09;;;;;;;10.00;6.00;;;;;;;15.87;79.23;101375.27;108752;1234;69235;-67
2022/09/02 02:25:38;;;;;;;8.50;5.70;;;;;;;15.80;80.38;101385.48;108779;1235;73939;-71
2022/09/02 02:28:05;;;;;;;10.60;6.40;;;;;;;15.80;81.49;101389.70;108604;1236;61019;-72
2022/09/02 02:30:33;;;;;;;11.10;6.40;;;;;;;15.81;80.98;101386.10;108508;1235;60624;-71
2022/09/02 02:33:01;;;;;;;11.30;6.10;;;;;;;15.76;82.88;101391.65;108789;1234;73638;-71
2022/09/02 02:35:28;;;;;;;9.60;6.10;;;;;;;15.73;81.61;101395.26;108805;1233;73038;-70
2022/09/02 02:37:56;;;;;;;11.40;7.20;;;;;;;15.71;80.95;101398.37;108847;1235;68677;-72
2022/09/02 02:40:24;;;;;;;11.10;6.30;;;;;;;15.68;81.23;101403.12;108504;1233;74295;-71
2022/09/02 02:42:52;;;;;;;8.50;5.10;;;;;;;15.66;81.01;101402.27;108800;1235;61759;-70
2022/09/02 02:45:23;;;;;;;10.40;6.30;;;;;;;15.58;82.70;101407.98;108694;1236;59677;-71
2022/09/02 02:47:51;;;;;;;10.70;5.50;;;;;;;15.54;82.87;101402.34;108854;1233;72504;-71
2022/09/02 02:50:21;;;;;;;10.10;6.00;;;;;;;15.54;81.79;101405.89;108883;1233;72385;-70
2022/09/02 02:52:53;;;;;;;15.20;6.50;;;;;;;15.52;83.04;101403.06;108855;1233;72247;-71
2022/09/02 02:55:23;;;;;;;9.20;5.70;;;;;;;15.50;83.39;101398.17;108840;1233;72706;-74
2022/09/02 02:57:51;;;;;;;12.40;6.20;;;;;;;15.46;84.35;101391.94;108756;1233;62447;-74
2022/09/02 03:00:29;;;;;;;9.80;6.40;;;;;;;15.46;86.83;101395.64;108856;1233;60449;-70
2022/09/02 03:03:06;;;;;;;11.70;6.30;;;;;;;15.44;85.84;101392.50;108745;1236;71659;-70
2022/09/02 03:05:36;;;;;;;9.50;6.70;;;;;;;15.45;86.91;101392.55;108743;1236;69599;-70
2022/09/02 03:08:07;;;;;;;11.90;6.40;;;;;;;15.45;87.39;101391.36;108552;1236;69572;-69
2022/09/02 03:10:37;;;;;;;9.00;6.40;;;;;;;15.48;87.23;101399.73;108691;1233;74201;-69
2022/09/02 03:13:05;;;;;;;12.60;6.70;;;;;;;15.57;87.90;101402.30;108559;1233;63207;-70
2022/09/02 03:15:32;;;;;;;10.40;6.60;;;;;;;15.61;87.38;101409.71;108991;1233;62738;-70
2022/09/02 03:18:01;;;;;;;11.10;6.00;;;;;;;15.61;87.53;101410.53;108916;1234;72527;-70
2022/09/02 03:20:30;;;;;;;13.20;6.30;;;;;;;15.61;85.68;101408.45;108911;1232;69382;-70
2022/09/02 03:22:59;;;;;;;7.60;4.90;;;;;;;15.52;86.20;101415.55;108552;1236;68622;-70
2022/09/02 03:25:30;;;;;;;8.10;5.40;;;;;;;15.49;86.21;101413.14;108809;1235;72043;-70
2022/09/02 03:28:04;;;;;;;8.60;4.60;;;;;;;15.44;87.35;101416.90;108936;1233;61828;-70
2022/09/02 03:30:33;;;;;;;9.20;5.90;;;;;;;15.37;88.26;101417.46;108872;1233;60680;-71
2022/09/02 03:33:04;;;;;;;10.20;6.10;;;;;;;15.28;88.59;101418.54;108958;1233;71824;-70
2022/09/02 03:35:37;;;;;;;10.40;5.90;;;;;;;15.26;87.96;101416.61;108694;1233;72426;-71
2022/09/02 03:38:05;;;;;;;10.40;6.20;;;;;;;15.21;87.72;101413.45;108650;1234;69428;-72
2022/09/02 03:40:32;;;;;;;9.10;5.70;;;;;;;15.17;88.56;101415.36;108694;1236;72840;-69
2022/09/02 03:43:00;;;;;;;9.10;5.90;;;;;;;15.21;88.27;101414.54;108493;1236;61211;-70
2022/09/02 03:45:29;;;;;;;9.30;5.90;;;;;;;15.20;87.47;101419.49;108691;1235;62201;-70
2022/09/02 03:47:58;;;;;;;8.80;5.80;;;;;;;15.24;87.94;101421.33;108739;1234;73039;-70
2022/09/02 03:50:33;;;;;;;9.70;5.80;;;;;;;15.26;87.22;101418.52;108726;1236;70399;-70
2022/09/02 03:53:01;;;;;;;8.30;4.90;;;;;;;15.28;87.38;101415.69;108797;1233;69794;-70
2022/09/02 03:55:29;;;;;;;8.30;5.30;;;;;;;15.27;86.97;101417.04;108583;1236;71675;-70
2022/09/02 03:57:58;;;;;;;9.10;5.70;;;;;;;15.24;86.67;101419.17;108838;1233;62132;-71
2022/09/02 04:00:30;;;;;;;8.50;4.60;;;;;;;15.21;88.29;101420.67;108567;1233;61661;-70
2022/09/02 04:03:01;;;;;;;9.80;5.50;;;;;;;15.24;87.46;101420.98;108688;1233;75306;-71
2022/09/02 04:05:29;;;;;;;7.80;5.40;;;;;;;15.24;87.12;101421.98;108523;1233;72093;-69
2022/09/02 04:07:59;;;;;;;10.00;6.40;;;;;;;15.26;87.14;101424.47;108688;1233;70831;-68
2022/09/02 04:10:27;;;;;;;9.00;6.10;;;;;;;15.26;86.86;101426.21;108640;1233;71407;-69
2022/09/02 04:12:55;;;;;;;7.60;5.60;;;;;;;15.28;88.38;101430.14;108337;1235;61994;-71
2022/09/02 04:15:24;;;;;;;9.60;5.80;;;;;;;15.31;88.96;101433.17;108459;1235;61248;-70
2022/09/02 04:17:51;;;;;;;7.70;5.30;;;;;;;15.36;87.97;101436.85;108811;1233;74888;-74
2022/09/02 04:20:20;;;;;;;10.40;5.40;;;;;;;15.39;86.86;101440.80;108798;1235;72243;-71
2022/09/02 04:22:48;;;;;;;8.60;5.80;;;;;;;15.39;87.09;101442.89;108640;1236;68548;-69
2022/09/02 04:25:17;;;;;;;8.90;5.50;;;;;;;15.40;86.52;101443.37;108681;1235;73818;-70
2022/09/02 04:27:44;;;;;;;10.00;5.70;;;;;;;15.36;86.88;101445.73;108311;1234;63330;-69
2022/09/02 04:30:15;;;;;;;9.80;5.60;;;;;;;15.36;86.35;101449.40;108590;1234;60459;-70
2022/09/02 04:32:42;;;;;;;9.20;5.70;;;;;;;15.32;86.86;101447.13;108356;1235;73972;-70
2022/09/02 04:35:10;;;;;;;10.90;5.40;;;;;;;15.33;86.71;101451.77;108380;1236;69165;-70
2022/09/02 04:37:38;;;;;;;11.50;5.80;;;;;;;15.34;86.19;101451.24;108620;1235;69548;-73
2022/09/02 04:40:08;;;;;;;11.10;5.70;;;;;;;15.34;85.71;101451.77;108426;1235;73937;-70
2022/09/02 04:42:37;;;;;;;12.80;5.80;;;;;;;15.36;85.70;101451.73;108605;1235;61888;-74
2022/09/02 04:45:07;;;;;;;12.30;5.80;;;;;;;15.38;86.09;101451.58;108777;1235;59326;-74
2022/09/02 04:47:34;;;;;;;7.40;5.50;;;;;;;15.41;85.89;101452.88;108429;1235;74528;-70
2022/09/02 04:50:03;;;;;;;9.70;6.20;;;;;;;15.46;86.92;101449.86;108793;1234;71214;-76
2022/09/02 04:52:33;;;;;;;9.90;5.90;;;;;;;15.53;86.55;101448.56;108905;1233;68690;-72
2022/09/02 04:55:01;;;;;;;11.00;5.70;;;;;;;15.55;86.39;101439.16;108840;1235;72831;-71
2022/09/02 04:57:30;;;;;;;16.80;6.10;;;;;;;15.66;85.79;101446.13;108803;1234;63001;-69
2022/09/02 05:00:00;;;;;;;8.90;5.60;;;;;;;15.72;86.27;101443.76;108709;1233;59419;-72
2022/09/02 05:02:27;;;;;;;12.00;5.80;;;;;;;15.79;86.57;101439.16;108994;1233;74631;-73
2022/09/02 05:04:55;;;;;;;12.10;5.20;;;;;;;15.88;85.56;101433.13;108860;1235;73181;-72
2022/09/02 05:07:27;;;;;;;7.70;5.30;;;;;;;15.94;84.92;101433.84;108814;1235;71544;-70
2022/09/02 05:09:58;;;;;;;8.70;5.60;;;;;;;15.96;84.41;101433.65;108717;1235;63802;-68
2022/09/02 05:12:26;;;;;;;12.50;5.70;;;;;;;15.92;84.29;101432.96;108895;1235;61240;-72
2022/09/02 05:14:59;;;;;;;10.00;5.50;;;;;;;15.96;84.47;101439.98;108591;1235;60457;-70
2022/09/02 05:17:30;;;;;;;6.90;5.10;;;;;;;16.04;83.78;101440.38;108687;1235;73451;-71
2022/09/02 05:19:58;;;;;;;9.50;5.50;;;;;;;16.00;83.77;101439.83;108788;1235;70534;-69
2022/09/02 05:22:28;;;;;;;10.80;5.10;;;;;;;16.02;83.76;101442.49;108522;1235;70589;-69
2022/09/02 05:24:56;;;;;;;16.20;6.10;;;;;;;16.00;84.06;101442.45;108569;1235;72168;-76
2022/09/02 05:27:24;;;;;;;9.50;5.20;;;;;;;15.98;85.28;101437.91;108451;1235;62331;-68
2022/09/02 05:29:55;;;;;;;12.60;5.70;;;;;;;16.04;84.53;101436.30;108538;1235;60942;-70
2022/09/02 05:32:22;;;;;;;8.30;5.60;;;;;;;16.07;84.68;101435.37;108566;1235;75139;-66
2022/09/02 05:34:52;;;;;;;9.50;5.10;;;;;;;16.07;84.23;101438.20;108862;1235;72606;-69
2022/09/02 05:37:19;;;;;;;11.90;6.00;;;;;;;16.00;84.45;101438.81;108712;1236;61296;-67
2022/09/02 05:39:48;;;;;;;9.40;4.90;;;;;;;15.97;84.53;101439.27;108685;1234;72027;-67
2022/09/02 05:42:19;;;;;;;9.60;5.70;;;;;;;15.95;84.34;101437.09;108912;1233;62631;-68
2022/09/02 05:44:48;;;;;;;7.90;5.40;;;;;;;15.93;84.34;101438.37;108666;1235;60461;-68
2022/09/02 05:47:18;;;;;;;13.70;6.70;;;;;;;15.96;84.30;101446.14;108931;1233;73537;-68
2022/09/02 05:49:46;;;;;;;13.30;5.90;;;;;;;16.03;84.40;101444.47;108730;1233;72579;-68
2022/09/02 05:52:16;;;;;;;10.10;5.60;;;;;;;16.16;84.11;101444.83;108965;1235;70225;-68
2022/09/02 05:54:48;;;;;;;9.90;5.50;;;;;;;16.20;83.73;101445.69;109010;1233;63674;-69
2022/09/02 05:57:17;;;;;;;7.40;5.00;;;;;;;16.15;83.90;101445.71;108898;1233;63025;-65
2022/09/02 05:59:55;;;;;;;8.40;5.30;;;;;;;16.20;83.62;101443.22;108911;1233;60592;-71
2022/09/02 06:02:26;;;;;;;12.60;6.00;;;;;;;16.22;83.59;101446.26;108697;1236;73094;-70
2022/09/02 06:04:55;;;;;;;9.70;6.10;;;;;;;16.14;84.68;101446.15;108708;1233;72176;-70
2022/09/02 06:07:25;;;;;;;11.40;6.20;;;;;;;16.23;84.72;101450.73;108796;1234;70118;-73
2022/09/02 06:09:54;;;;;;;10.30;6.30;;;;;;;16.27;84.43;101451.23;108527;1235;74386;-67
2022/09/02 06:12:23;;;;;;;13.00;5.80;;;;;;;16.39;83.77;101455.83;108819;1235;61133;-67
2022/09/02 06:14:51;;;;;;;16.20;6.90;;;;;;;16.51;83.41;101460.49;108886;1233;59937;-67
2022/09/02 06:17:20;;;;;;;8.30;5.20;;;;;;;16.65;82.36;101463.30;108748;1235;72870;-71
2022/09/02 06:19:50;;;;;;;7.40;5.30;;;;;;;16.65;81.96;101463.25;108873;1233;71228;-73
2022/09/02 06:22:22;;;;;;;10.50;5.70;;;;;;;16.67;81.60;101471.07;108744;1236;68740;-70
2022/09/02 06:24:51;;;;;;;9.10;5.10;;;;;;;16.61;81.63;101471.00;108750;1233;63235;-71
2022/09/02 06:27:21;;;;;;;10.30;6.10;;;;;;;16.60;81.81;101469.34;108574;1236;60535;-70
2022/09/02 06:29:51;;;;;;;12.10;5.70;;;;;;;16.56;81.72;101471.45;108803;1235;59564;-69
2022/09/02 06:32:20;;;;;;;9.70;6.20;;;;;;;16.56;81.80;101475.31;108873;1233;71471;-69
2022/09/02 06:34:49;;;;;;;12.20;6.60;;;;;;;16.56;81.75;101481.33;108940;1233;72340;-70
2022/09/02 06:37:17;;;;;;;11.10;6.10;;;;;;;16.53;81.58;101484.71;108544;1235;68551;-70
2022/09/02 06:39:45;;;;;;;10.50;6.80;;;;;;;16.53;81.84;101488.30;108729;1233;73257;-71
2022/09/02 06:42:17;;;;;;;13.00;6.40;;;;;;;16.62;81.20;101480.92;108869;1235;61784;-69
2022/09/02 06:44:59;;;;;;;11.50;6.40;;;;;;;16.70;80.86;101486.98;108711;1236;60122;-70
2022/09/02 06:47:27;;;;;;;9.30;6.00;;;;;;;16.75;80.64;101482.21;108875;1233;72797;-70
2022/09/02 06:49:55;;;;;;;15.20;6.50;;;;;;;16.80;80.60;101480.67;108695;1236;62052;-71
2022/09/02 06:52:23;;;;;;;12.80;6.90;;;;;;;16.92;80.48;101480.30;108904;1233;70491;-70
2022/09/02 06:54:51;;;;;;;12.60;6.40;;;;;;;17.06;79.64;101479.69;108850;1233;63052;-68
2022/09/02 06:57:18;;;;;;;9.60;6.20;;;;;;;17.13;79.08;101483.44;108906;1233;62026;-69
2022/09/02 06:59:47;;;;;;;11.80;6.30;;;;;;;17.23;78.84;101484.32;108568;1235;58388;-69
2022/09/02 07:02:15;;;;;;;12.70;6.30;;;;;;;17.31;78.07;101486.06;108812;1235;75370;-69
2022/09/02 07:07:31;;;;;;;13.40;7.00;;;;;;;17.50;76.78;101483.13;108680;1235;71900;-70
2022/09/02 07:10:09;;;;;;;13.20;7.00;;;;;;;17.63;75.86;101478.13;108481;1235;63596;-71
2022/09/02 07:12:40;;;;;;;13.00;7.20;;;;;;;17.64;75.67;101480.70;108755;1233;63003;-72
2022/09/02 07:15:14;;;;;;;19.70;7.90;;;;;;;17.74;75.10;101482.39;108858;1233;61597;-72
2022/09/02 07:17:42;;;;;;;12.10;8.00;;;;;;;17.78;74.83;101489.46;108688;1233;73948;-76
2022/09/02 07:20:18;;;;;;;13.40;6.80;;;;;;;17.79;74.66;101490.26;108655;1235;72925;-83
2022/09/02 07:22:51;;;;;;;15.10;7.50;;;;;;;17.78;74.54;101487.16;108980;1235;71616;-78
2022/09/02 07:25:19;;;;;;;12.80;6.90;;;;;;;17.83;74.55;101487.27;108908;1235;63859;-83
2022/09/02 07:27:50;;;;;;;12.80;6.80;;;;;;;17.75;75.06;101490.45;108717;1235;62886;-79
2022/09/02 07:30:17;;;;;;;16.40;7.60;;;;;;;17.84;74.63;101490.02;108825;1236;59634;-81
2022/09/02 07:32:45;;;;;;;18.50;7.20;;;;;;;17.93;74.31;101485.95;108849;1233;65097;-77
2022/09/02 07:35:13;;;;;;;11.70;7.00;;;;;;;17.91;73.70;101485.68;108856;1233;61561;-77
2022/09/02 07:37:41;;;;;;;10.40;6.50;;;;;;;17.99;73.70;101485.77;108677;1235;60449;-80
2022/09/02 07:40:10;;;;;;;12.40;8.10;;;;;;;17.90;74.34;101481.69;108573;1235;75404;-74
2022/09/02 07:42:38;;;;;;;16.90;7.00;;;;;;;17.90;73.12;101484.53;108633;1235;60917;-81
2022/09/02 07:45:06;;;;;;;12.50;6.40;;;;;;;17.88;71.17;101485.03;108632;1235;58096;-75
2022/09/02 07:47:34;;;;;;;11.80;6.30;;;;;;;17.94;71.54;101484.67;108883;1235;74235;-79
2022/09/02 07:50:05;;;;;;;13.00;7.60;;;;;;;17.99;69.55;101485.39;108594;1235;71782;-78
2022/09/02 07:52:55;;;;;;;11.40;6.40;;;;;;;18.01;70.25;101483.48;108818;1233;60499;-79
2022/09/02 07:55:25;;;;;;;14.50;7.50;;;;;;;18.12;70.74;101476.29;108609;1233;73957;-77
2022/09/02 07:57:53;;;;;;;12.60;7.00;;;;;;;18.19;70.28;101478.66;108504;1235;62616;-78
2022/09/02 08:00:26;;;;;;;10.90;6.90;;;;;;;18.26;70.29;101474.79;109063;1235;59590;-78
2022/09/02 08:02:54;;;;;;;14.10;7.20;;;;;;;18.37;70.96;101474.85;108863;1235;73526;-80
2022/09/02 08:05:28;;;;;;;15.40;7.40;;;;;;;18.28;71.32;101476.55;108870;1236;63137;-79
2022/09/02 08:07:55;;;;;;;16.40;7.40;;;;;;;18.25;70.28;101474.52;108855;1236;59965;-79
2022/09/02 08:10:26;;;;;;;13.80;6.90;;;;;;;18.24;70.04;101473.56;108957;1234;64985;-82
2022/09/02 08:12:54;;;;;;;14.40;7.20;;;;;;;18.25;70.31;101471.42;108958;1235;59746;-79
2022/09/02 08:15:23;;;;;;;14.40;7.10;;;;;;;18.35;69.58;101471.04;108685;1236;60349;-80
2022/09/02 08:17:51;;;;;;;14.40;7.10;;;;;;;18.48;69.09;101467.26;108985;1235;63906;-81
2022/09/02 08:20:18;;;;;;;11.80;6.50;;;;;;;18.57;68.69;101468.94;108995;1235;61558;-81
2022/09/02 08:22:46;;;;;;;15.90;6.60;;;;;;;18.63;68.09;101472.99;109031;1235;69771;-82
2022/09/02 08:25:27;;;;;;;11.40;6.40;;;;;;;18.67;66.99;101471.84;108982;1235;63697;-77
2022/09/02 08:27:54;;;;;;;13.80;6.80;;;;;;;18.87;66.55;101470.19;108948;1235;61077;-79
2022/09/02 08:30:27;;;;;;;14.80;6.40;;;;;;;18.86;64.92;101475.35;108677;1236;59465;-79
2022/09/02 08:32:55;;;;;;;11.70;6.60;;;;;;;18.84;64.39;101476.77;108892;1234;75087;-77
2022/09/02 08:35:22;;;;;;;11.90;6.60;;;;;;;18.84;63.81;101479.45;108847;1233;72858;-80
2022/09/02 08:37:50;;;;;;;11.80;6.60;;;;;;;18.99;63.67;101479.38;108948;1233;69430;-79
2022/09/02 08:40:27;;;;;;;10.40;6.00;;;;;;;19.08;63.60;101481.02;108977;1233;73147;-80
2022/09/02 08:42:56;;;;;;;9.80;6.30;;;;;;;19.03;62.72;101482.08;108679;1235;60907;-77
2022/09/02 08:45:27;;;;;;;12.60;6.40;;;;;;;18.93;63.03;101479.11;108931;1233;59590;-78
2022/09/02 08:48:26;;;;;;;10.80;6.30;;;;;;;19.01;62.83;101481.33;108907;1235;73601;-78
2022/09/02 08:51:02;;;;;;;10.30;6.60;;;;;;;19.16;62.76;101475.45;108896;1234;71356;-79
2022/09/02 08:54:15;;;;;;;13.70;6.80;;;;;;;19.22;62.83;101472.39;108952;1235;60335;-78
2022/09/02 08:56:42;;;;;;;10.60;6.30;;;;;;;19.40;62.55;101475.05;108579;1235;63362;-81
2022/09/02 08:59:14;;;;;;;11.00;6.20;;;;;;;19.56;62.22;101480.45;108607;1235;59638;-77
2022/09/02 09:02:00;;;;;;;10.60;6.10;;;;;;;19.50;62.53;101479.05;108904;1234;62863;-84
2022/09/02 09:05:05;;;;;;;13.30;6.30;;;;;;;19.71;62.23;101477.69;108742;1233;74020;-81
2022/09/02 09:07:44;;;;;;;11.10;6.90;;;;;;;19.74;61.89;101473.58;108844;1236;62053;-86
2022/09/02 09:10:43;;;;;;;12.80;6.60;;;;;;;19.67;61.98;101469.60;109023;1233;61688;-80
2022/09/02 09:13:32;;;;;;;11.60;6.30;;;;;;;19.66;61.03;101466.17;108614;1234;74039;-83
2022/09/02 09:16:42;;;;;;;12.60;6.10;;;;;;;19.72;61.20;101465.21;108728;1235;59648;-80
2022/09/02 09:19:30;;;;;;;14.00;6.10;;;;;;;19.76;60.82;101470.55;108486;1236;60241;-79
2022/09/02 09:22:02;;;;;;;9.70;6.90;;;;;;;19.82;60.84;101473.34;108552;1235;75179;-77
2022/09/02 09:24:39;;;;;;;13.00;6.50;;;;;;;19.79;60.39;101474.41;108640;1236;62068;-76
2022/09/02 09:27:17;;;;;;;11.20;6.10;;;;;;;19.80;60.25;101476.29;108595;1236;59273;-80
2022/09/02 09:29:44;;;;;;;10.70;6.80;;;;;;;19.62;59.92;101474.72;108803;1236;64922;-86
2022/09/02 09:32:53;;;;;;;15.10;6.40;;;;;;;19.62;60.37;101478.76;108710;1235;61178;-79
2022/09/02 09:35:21;;;;;;;11.40;6.20;;;;;;;19.62;60.53;101475.95;108701;1236;62066;-78
2022/09/02 09:37:51;;;;;;;12.50;6.20;;;;;;;19.67;60.48;101482.73;109014;1235;74763;-78
2022/09/02 09:40:21;;;;;;;10.80;5.90;;;;;;;19.62;60.42;101484.80;109069;1235;61481;-79
2022/09/02 09:43:09;;;;;;;11.20;5.80;;;;;;;19.42;60.59;101485.66;109104;1235;68220;-81
2022/09/02 09:45:46;;;;;;;;;;;;;;;19.49;60.63;101484.13;109131;1235;62899;-80
2022/09/02 09:48:22;;;;;;;12.10;6.20;;;;;;;19.47;60.51;101486.61;109122;1234;58000;-79
2022/09/02 09:50:55;;;;;;;9.80;5.40;;;;;;;19.47;60.06;101485.55;108816;1236;59524;-80
2022/09/02 09:53:24;;;;;;;10.50;5.70;;;;;;;19.42;59.44;101484.77;108801;1235;64685;-80
2022/09/02 09:56:05;;;;;;;11.80;6.10;;;;;;;19.36;59.20;101481.48;108704;1235;61642;-80
2022/09/02 09:58:40;;;;;;;9.80;6.50;;;;;;;19.49;59.19;101483.08;108565;1236;70603;-80
2022/09/02 10:01:14;;;;;;;11.30;5.70;;;;;;;19.53;59.04;101479.69;108707;1236;63574;-80
2022/09/02 10:03:51;;;;;;;10.20;6.00;;;;;;;19.54;59.02;101474.05;108690;1235;59425;-82
2022/09/02 10:06:32;;;;;;;8.90;5.80;;;;;;;19.57;59.09;101473.99;108627;1235;57939;-80
2022/09/02 10:09:05;;;;;;;12.00;5.90;;;;;;;19.56;58.95;101473.67;108593;1235;63887;-80
2022/09/02 10:11:36;;;;;;;11.50;6.10;;;;;;;19.66;58.94;101474.16;108677;1235;71474;-78
2022/09/02 10:15:02;;;;;;;10.80;6.50;;;;;;;19.79;58.23;101477.66;108924;1234;69460;-79
2022/09/02 10:18:13;;;;;;;9.90;6.60;;;;;;;19.87;58.56;101472.56;107828;1242;73737;-79
2022/09/02 10:21:27;;;;;;;10.90;5.90;;;;;;;19.99;58.44;101466.80;108822;1235;60797;-81
2022/09/02 10:24:26;;;;;;;10.40;6.60;;;;;;;19.90;56.65;101466.09;108650;1234;58455;-80
2022/09/02 10:27:21;;;;;;;15.00;7.80;;;;;;;20.10;56.64;101465.70;108607;1236;64906;-81
2022/09/02 10:30:17;;;;;;;9.60;5.60;;;;;;;20.23;55.72;101465.29;108210;1241;61705;-80
2022/09/02 10:33:25;;;;;;;10.70;5.70;;;;;;;20.30;54.83;101468.97;108300;1239;60066;-77
2022/09/02 10:37:01;;;;;;;8.50;5.50;;;;;;;20.12;54.11;101468.89;108285;1238;74052;-80
2022/09/02 10:40:02;;;;;;;8.90;5.50;;;;;;;20.31;52.83;101470.45;108362;1239;59701;-80
2022/09/02 10:43:04;;;;;;;12.20;5.70;;;;;;;20.35;52.34;101467.77;108473;1238;58958;-81
2022/09/02 10:45:49;;;;;;;9.90;5.30;;;;;;;20.45;53.07;101465.52;108563;1238;74651;-80
2022/09/02 10:48:50;;;;;;;11.40;5.30;;;;;;;20.45;52.35;101463.70;108167;1238;72860;-79
2022/09/02 10:51:44;;;;;;;7.00;4.60;;;;;;;20.42;51.63;101466.17;108567;1239;71388;-79
2022/09/02 10:54:26;;;;;;;12.10;5.00;;;;;;;20.51;50.29;101459.77;108319;1238;74359;-77
2022/09/02 10:57:14;;;;;;;9.60;4.40;;;;;;;20.40;49.71;101462.86;108506;1238;57966;-79
2022/09/02 11:00:08;;;;;;;8.70;4.60;;;;;;;20.28;49.58;101462.09;108418;1239;59538;-80
2022/09/02 11:02:55;;;;;;;7.50;4.60;;;;;;;20.27;49.33;101462.35;108830;1236;63799;-80
2022/09/02 11:05:58;;;;;;;8.70;5.50;;;;;;;20.28;49.95;101460.83;108857;1236;61518;-78
2022/09/02 11:09:08;;;;;;;11.30;5.00;;;;;;;20.32;50.85;101463.92;108889;1235;59188;-81
2022/09/02 11:12:17;;;;;;;9.50;4.80;;;;;;;20.27;50.81;101463.39;108661;1235;73199;-79
2022/09/02 11:15:18;;;;;;;9.20;4.70;;;;;;;20.24;50.90;101462.20;108700;1236;59577;-79
2022/09/02 11:18:11;;;;;;;10.40;4.80;;;;;;;20.27;50.72;101463.65;108986;1236;58024;-82
2022/09/02 11:21:09;;;;;;;8.30;4.40;;;;;;;20.30;49.24;101464.89;108974;1236;64026;-80
2022/09/02 11:23:53;;;;;;;9.30;4.50;;;;;;;20.32;49.06;101462.76;108706;1235;72289;-83
2022/09/02 11:26:58;;;;;;;7.80;4.60;;;;;;;20.21;48.84;101462.11;108648;1236;61068;-78
2022/09/02 11:30:04;;;;;;;7.80;4.20;;;;;;;20.18;49.60;101462.37;108429;1236;63361;-79
2022/09/02 11:32:41;;;;;;;9.70;4.70;;;;;;;20.14;50.01;101462.40;108736;1236;59619;-80
2022/09/02 11:35:25;;;;;;;9.30;6.30;;;;;;;20.05;50.40;101461.92;108968;1233;57862;-79
2022/09/02 11:38:25;;;;;;;9.40;5.20;;;;;;;20.02;49.80;101465.59;108988;1234;74697;-80
2022/09/02 11:41:51;;;;;;;10.40;5.00;;;;;;;19.82;49.74;101462.52;108919;1234;72037;-80
2022/09/02 11:45:16;;;;;;;7.70;5.00;;;;;;;19.80;50.50;101462.16;108697;1236;60366;-84
2022/09/02 11:48:21;;;;;;;8.60;5.30;;;;;;;19.74;51.00;101460.40;108705;1235;72280;-79
2022/09/02 11:51:05;;;;;;;9.40;5.30;;;;;;;19.74;50.38;101454.98;108911;1233;62056;-83